Time;durP1;ratioP1;P1;durP2;ratioP2;P2;SDS_P1;SDS_P2;PMS_P1;PMS_P2;Temp;Humidity;BMP_temperature;BMP_pressure;BME280_temperature;BME280_humidity;BME280_pressure;Samples;Min_cycle;Max_cycle;Signal;HPM_P1;HPM_P2
2024/02/11 00:00:50;;;;;;;19.60;13.50;;;7.70;99.90;;;;;;2085015;28;20057;-69
2024/02/11 00:01:51;;;;;;;17.52;13.52;;;7.70;99.90;;;;;;2083246;28;20031;-70
2024/02/11 00:02:51;;;;;;;18.10;13.07;;;7.70;99.90;;;;;;2078353;28;20025;-70
2024/02/11 00:03:54;;;;;;;17.63;13.43;;;7.70;99.90;;;;;;2085241;28;20025;-69
2024/02/11 00:04:55;;;;;;;20.45;13.30;;;7.60;99.90;;;;;;2084305;28;20053;-69
2024/02/11 00:05:57;;;;;;;18.90;13.77;;;7.60;99.90;;;;;;2077663;28;20474;-70
2024/02/11 00:06:59;;;;;;;22.27;15.43;;;7.60;99.90;;;;;;2084910;28;20552;-71
2024/02/11 00:07:59;;;;;;;22.10;15.98;;;7.60;99.90;;;;;;2080676;28;20026;-70
2024/02/11 00:09:00;;;;;;;27.27;18.40;;;7.60;99.90;;;;;;2077324;28;20091;-68
2024/02/11 00:10:00;;;;;;;26.20;17.48;;;7.50;99.90;;;;;;2087674;28;20029;-69
2024/02/11 00:11:01;;;;;;;25.00;18.27;;;7.50;99.90;;;;;;2084829;28;20033;-70
2024/02/11 00:12:02;;;;;;;27.85;19.35;;;7.50;99.90;;;;;;2084629;28;20017;-69
2024/02/11 00:13:03;;;;;;;26.50;18.67;;;7.50;99.90;;;;;;2076953;28;20471;-70
2024/02/11 00:14:03;;;;;;;27.08;19.27;;;7.40;99.90;;;;;;2076845;28;20029;-69
2024/02/11 00:15:05;;;;;;;28.02;20.27;;;7.40;99.90;;;;;;2083611;28;20036;-69
2024/02/11 00:16:09;;;;;;;27.23;21.05;;;7.30;99.90;;;;;;2075750;28;20096;-70
2024/02/11 00:17:10;;;;;;;30.13;20.95;;;7.30;99.90;;;;;;2083188;28;20056;-68
2024/02/11 00:18:11;;;;;;;31.35;21.63;;;7.30;99.90;;;;;;2084517;28;20103;-70
2024/02/11 00:19:12;;;;;;;32.45;23.10;;;7.20;99.90;;;;;;2079060;28;20100;-70
2024/02/11 00:20:15;;;;;;;32.72;22.25;;;7.20;99.90;;;;;;2089277;28;20078;-70
2024/02/11 00:21:16;;;;;;;31.50;22.80;;;7.20;99.90;;;;;;2084300;28;20055;-71
2024/02/11 00:22:16;;;;;;;32.45;23.73;;;7.20;99.90;;;;;;2079895;28;20037;-70
2024/02/11 00:23:17;;;;;;;34.42;23.08;;;7.20;99.90;;;;;;2081085;28;20507;-70
2024/02/11 00:24:19;;;;;;;33.47;23.33;;;7.20;99.90;;;;;;2084068;28;20029;-71
2024/02/11 00:25:20;;;;;;;32.75;22.02;;;7.20;99.90;;;;;;2081040;28;20418;-70
2024/02/11 00:26:20;;;;;;;34.65;22.60;;;7.10;99.90;;;;;;2086371;28;20021;-71
2024/02/11 00:27:22;;;;;;;30.33;22.10;;;7.10;99.90;;;;;;2087819;28;20469;-71
2024/02/11 00:28:25;;;;;;;29.83;21.55;;;7.10;99.90;;;;;;2083238;28;20582;-70
2024/02/11 00:29:26;;;;;;;29.05;21.55;;;7.10;99.90;;;;;;2080622;28;20151;-69
2024/02/11 00:30:27;;;;;;;28.27;21.20;;;7.10;99.90;;;;;;2071167;28;20524;-69
2024/02/11 00:31:28;;;;;;;30.50;21.63;;;7.00;99.90;;;;;;2065988;28;20148;-70
2024/02/11 00:32:28;;;;;;;32.33;21.55;;;7.00;99.90;;;;;;2084780;28;20561;-70
2024/02/11 00:33:30;;;;;;;28.50;20.98;;;7.00;99.90;;;;;;2076083;28;20111;-69
2024/02/11 00:34:31;;;;;;;30.60;20.80;;;7.00;99.90;;;;;;2075884;28;20041;-71
2024/02/11 00:35:32;;;;;;;33.72;21.60;;;7.00;99.90;;;;;;2077667;28;20025;-70
2024/02/11 00:36:33;;;;;;;33.30;22.02;;;7.00;99.90;;;;;;2084337;28;20052;-70
2024/02/11 00:37:34;;;;;;;32.25;23.15;;;7.00;99.90;;;;;;2083753;28;20025;-70
2024/02/11 00:38:35;;;;;;;29.20;21.45;;;6.90;99.90;;;;;;2081396;28;20035;-70
2024/02/11 00:39:36;;;;;;;30.33;21.73;;;6.90;99.90;;;;;;2083664;28;20388;-70
2024/02/11 00:40:37;;;;;;;32.40;23.73;;;6.90;99.90;;;;;;2088154;28;20391;-70
2024/02/11 00:41:41;;;;;;;35.30;23.60;;;6.90;99.90;;;;;;2076273;28;20025;-70
2024/02/11 00:42:42;;;;;;;30.80;22.27;;;6.90;99.90;;;;;;2085920;28;20379;-70
2024/02/11 00:43:42;;;;;;;29.52;21.15;;;6.90;99.90;;;;;;2084744;28;20032;-68
2024/02/11 00:44:43;;;;;;;29.83;22.02;;;6.90;99.90;;;;;;2078061;28;20067;-70
2024/02/11 00:45:43;;;;;;;30.40;21.80;;;6.80;99.90;;;;;;2088594;28;20023;-70
2024/02/11 00:46:46;;;;;;;32.70;22.50;;;6.90;99.90;;;;;;2088396;28;20032;-69
2024/02/11 00:47:47;;;;;;;28.40;21.52;;;6.90;99.90;;;;;;2076984;28;20041;-69
2024/02/11 00:48:48;;;;;;;32.05;23.15;;;6.80;99.90;;;;;;2084372;28;20399;-69
2024/02/11 00:49:49;;;;;;;30.55;23.55;;;6.80;99.90;;;;;;2077853;28;20036;-70
2024/02/11 00:50:49;;;;;;;33.75;24.30;;;6.80;99.90;;;;;;2082905;28;20461;-69
2024/02/11 00:51:50;;;;;;;31.30;23.10;;;6.80;99.90;;;;;;2083982;28;20024;-69
2024/02/11 00:52:50;;;;;;;33.72;23.35;;;6.80;99.90;;;;;;2076581;28;20013;-69
2024/02/11 00:53:51;;;;;;;32.78;23.70;;;6.70;99.90;;;;;;2076526;28;20625;-68
2024/02/11 00:54:51;;;;;;;33.10;23.60;;;6.70;99.90;;;;;;2084546;28;20028;-70
2024/02/11 00:55:52;;;;;;;32.45;22.80;;;6.70;99.90;;;;;;2073212;28;20448;-70
2024/02/11 00:56:55;;;;;;;32.78;23.15;;;6.70;99.90;;;;;;2075885;28;20040;-71
2024/02/11 00:57:56;;;;;;;31.35;22.85;;;6.70;99.90;;;;;;2086390;28;20012;-69
2024/02/11 00:58:57;;;;;;;30.90;23.15;;;6.70;99.90;;;;;;2080020;28;20088;-70
2024/02/11 00:59:58;;;;;;;29.17;22.33;;;6.70;99.90;;;;;;2079719;28;20120;-69
2024/02/11 01:00:59;;;;;;;29.98;22.42;;;6.70;99.90;;;;;;2091530;28;20025;-71
2024/02/11 01:02:00;;;;;;;30.48;21.70;;;6.70;99.90;;;;;;2083926;28;20045;-70
2024/02/11 01:03:04;;;;;;;32.92;22.33;;;6.70;99.90;;;;;;2082126;28;20022;-70
2024/02/11 01:04:05;;;;;;;30.27;21.13;;;6.70;99.90;;;;;;2085580;28;20097;-70
2024/02/11 01:05:07;;;;;;;30.08;21.88;;;6.70;99.90;;;;;;2086866;28;20048;-69
2024/02/11 01:06:10;;;;;;;28.48;21.08;;;6.70;99.90;;;;;;2082345;28;20033;-70
2024/02/11 01:07:12;;;;;;;28.90;21.15;;;6.70;99.90;;;;;;2084396;28;20045;-70
2024/02/11 01:08:13;;;;;;;31.33;22.08;;;6.70;99.90;;;;;;2084565;28;20028;-69
2024/02/11 01:09:13;;;;;;;29.05;21.27;;;6.80;99.90;;;;;;2076473;28;20696;-70
2024/02/11 01:10:17;;;;;;;31.40;20.67;;;6.80;99.90;;;;;;2076506;28;20033;-68
2024/02/11 01:11:19;;;;;;;29.60;21.00;;;6.80;99.90;;;;;;2076661;28;20502;-70
2024/02/11 01:12:19;;;;;;;30.40;20.95;;;6.80;99.90;;;;;;2078569;28;20034;-69
2024/02/11 01:13:20;;;;;;;29.48;21.17;;;6.80;99.90;;;;;;2081698;28;20030;-69
2024/02/11 01:14:21;;;;;;;29.67;21.20;;;6.80;99.90;;;;;;2086222;28;20208;-69
2024/02/11 01:15:26;;;;;;;32.45;22.17;;;6.80;99.90;;;;;;2084405;28;20048;-69
2024/02/11 01:16:27;;;;;;;33.22;22.88;;;6.80;99.90;;;;;;2080722;28;20044;-69
2024/02/11 01:17:29;;;;;;;29.85;22.58;;;6.70;99.90;;;;;;2084172;28;20024;-69
2024/02/11 01:18:30;;;;;;;31.75;22.38;;;6.70;99.90;;;;;;2084261;28;20490;-69
2024/02/11 01:19:30;;;;;;;30.83;23.35;;;6.70;99.90;;;;;;2077331;28;20041;-69
2024/02/11 01:20:31;;;;;;;32.03;22.27;;;6.70;99.90;;;;;;2073022;28;21138;-69
2024/02/11 01:21:31;;;;;;;29.15;20.98;;;6.70;99.90;;;;;;2086620;28;20199;-69
2024/02/11 01:22:33;;;;;;;32.63;22.50;;;6.60;99.90;;;;;;2076469;28;20041;-69
2024/02/11 01:23:34;;;;;;;33.03;23.38;;;6.60;99.90;;;;;;2081979;28;20058;-69
2024/02/11 01:24:34;;;;;;;30.77;22.08;;;6.60;99.90;;;;;;2084522;28;20033;-69
2024/02/11 01:25:35;;;;;;;30.65;22.33;;;6.60;99.90;;;;;;2079887;28;20036;-69
2024/02/11 01:26:36;;;;;;;32.45;22.60;;;6.60;99.90;;;;;;2084201;28;20028;-69
2024/02/11 01:27:40;;;;;;;32.38;23.30;;;6.60;99.90;;;;;;2076408;28;20481;-69
2024/02/11 01:28:41;;;;;;;31.25;22.27;;;6.50;99.90;;;;;;2080419;28;20030;-69
2024/02/11 01:29:41;;;;;;;32.88;22.58;;;6.50;99.90;;;;;;2083973;28;20160;-69
2024/02/11 01:30:45;;;;;;;31.48;21.63;;;6.60;99.90;;;;;;2077586;28;20026;-70
2024/02/11 01:31:46;;;;;;;29.98;21.63;;;6.60;99.90;;;;;;2071295;28;20026;-70
2024/02/11 01:32:48;;;;;;;29.50;22.83;;;6.70;99.90;;;;;;2079739;28;20107;-70
2024/02/11 01:33:52;;;;;;;32.35;21.42;;;6.70;99.90;;;;;;2075695;28;20025;-71
2024/02/11 01:34:52;;;;;;;29.73;22.23;;;6.70;99.90;;;;;;2084085;28;20056;-69
2024/02/11 01:35:53;;;;;;;29.60;21.63;;;6.70;99.90;;;;;;2076783;28;20590;-69
2024/02/11 01:36:53;;;;;;;35.67;23.00;;;6.60;99.90;;;;;;2082975;28;20033;-69
2024/02/11 01:37:54;;;;;;;31.15;22.30;;;6.60;99.90;;;;;;2085821;28;20127;-69
2024/02/11 01:38:54;;;;;;;34.22;22.98;;;6.60;99.90;;;;;;2081688;28;20029;-69
2024/02/11 01:39:55;;;;;;;33.80;23.20;;;6.60;99.90;;;;;;2082273;28;20535;-71
2024/02/11 01:40:55;;;;;;;33.25;24.02;;;6.60;99.90;;;;;;2084300;28;20025;-69
2024/02/11 01:41:56;;;;;;;32.95;24.05;;;6.60;99.90;;;;;;2085239;28;20036;-69
2024/02/11 01:42:56;;;;;;;32.40;22.10;;;6.60;99.90;;;;;;2084031;28;20509;-69
2024/02/11 01:43:58;;;;;;;29.15;22.40;;;6.60;99.90;;;;;;2077180;28;20021;-69
2024/02/11 01:44:58;;;;;;;30.02;22.42;;;6.60;99.90;;;;;;2082725;28;20029;-69
2024/02/11 01:46:00;;;;;;;31.13;23.08;;;6.60;99.90;;;;;;2082964;28;20103;-70
2024/02/11 01:47:03;;;;;;;32.00;22.75;;;6.60;99.90;;;;;;2077229;28;20037;-70
2024/02/11 01:48:05;;;;;;;33.15;22.42;;;6.60;99.90;;;;;;2085040;28;20157;-70
2024/02/11 01:49:06;;;;;;;33.00;22.30;;;6.60;99.90;;;;;;2086963;28;20063;-69
2024/02/11 01:50:16;;;;;;;30.00;21.42;;;6.60;99.90;;;;;;2079443;28;20026;-69
2024/02/11 01:51:17;;;;;;;31.00;21.92;;;6.60;99.90;;;;;;2077470;28;20021;-69
2024/02/11 01:52:18;;;;;;;28.52;21.02;;;6.60;99.90;;;;;;2083639;28;20026;-70
2024/02/11 01:53:20;;;;;;;30.90;22.10;;;6.50;99.90;;;;;;2086683;28;20100;-71
2024/02/11 01:54:21;;;;;;;29.33;21.30;;;6.60;99.90;;;;;;2075667;28;20112;-71
2024/02/11 01:55:23;;;;;;;29.67;21.98;;;6.60;99.90;;;;;;2083332;28;20340;-81
2024/02/11 01:56:28;;;;;;;28.88;19.73;;;6.60;99.90;;;;;;2079943;28;20017;-83
2024/02/11 01:57:28;;;;;;;29.08;21.35;;;6.70;99.90;;;;;;2076362;28;20044;-74
2024/02/11 01:58:29;;;;;;;28.83;20.15;;;6.70;99.90;;;;;;2082052;28;20053;-74
2024/02/11 01:59:36;;;;;;;29.13;20.00;;;6.70;99.90;;;;;;2083945;28;20028;-76
2024/02/11 02:00:37;;;;;;;27.27;19.17;;;6.70;99.90;;;;;;2077518;28;20028;-78
2024/02/11 02:01:38;;;;;;;26.50;18.83;;;6.80;99.90;;;;;;2078768;28;20017;-78
2024/02/11 02:02:40;;;;;;;30.25;19.88;;;6.90;99.90;;;;;;2078841;28;20869;-77
2024/02/11 02:03:45;;;;;;;30.38;21.58;;;6.90;99.90;;;;;;2080076;28;20096;-78
2024/02/11 02:04:47;;;;;;;32.50;21.92;;;6.80;99.90;;;;;;2075750;28;20047;-78
2024/02/11 02:05:48;;;;;;;30.60;22.10;;;6.80;99.90;;;;;;2075258;28;20033;-78
2024/02/11 02:06:50;;;;;;;31.92;21.10;;;6.80;99.90;;;;;;2084160;28;20328;-78
2024/02/11 02:07:54;;;;;;;31.65;21.95;;;6.70;99.90;;;;;;2067534;28;20428;-79
2024/02/11 02:08:57;;;;;;;31.30;22.08;;;6.70;99.90;;;;;;2082298;28;20024;-79
2024/02/11 02:10:00;;;;;;;32.13;21.55;;;6.70;99.90;;;;;;2087758;28;20027;-78
2024/02/11 02:11:01;;;;;;;29.17;21.63;;;6.70;99.90;;;;;;2076931;28;20037;-78
2024/02/11 02:12:04;;;;;;;30.27;21.70;;;6.70;99.90;;;;;;2082151;28;20659;-77
2024/02/11 02:13:04;;;;;;;28.05;21.55;;;6.60;99.90;;;;;;2076480;28;20486;-77
2024/02/11 02:14:06;;;;;;;30.77;21.88;;;6.60;99.90;;;;;;2079097;28;20063;-78
2024/02/11 02:15:09;;;;;;;36.92;24.55;;;6.60;99.90;;;;;;2077212;28;20060;-78
2024/02/11 02:16:10;;;;;;;37.05;25.50;;;6.60;99.90;;;;;;2078871;28;20032;-77
2024/02/11 02:17:10;;;;;;;35.95;25.67;;;6.60;99.90;;;;;;2081189;28;20533;-78
2024/02/11 02:18:11;;;;;;;36.25;26.02;;;6.60;99.90;;;;;;2080395;28;20513;-78
2024/02/11 02:19:14;;;;;;;36.13;25.20;;;6.60;99.90;;;;;;2076233;28;20446;-78
2024/02/11 02:20:16;;;;;;;34.58;25.27;;;6.50;99.90;;;;;;2076607;28;20084;-78
2024/02/11 02:21:18;;;;;;;34.90;25.70;;;6.50;99.90;;;;;;2083420;28;20036;-78
2024/02/11 02:22:20;;;;;;;36.47;25.70;;;6.50;99.90;;;;;;2079568;28;20118;-78
2024/02/11 02:23:20;;;;;;;32.95;24.33;;;6.50;99.90;;;;;;2083605;28;20032;-77
2024/02/11 02:24:21;;;;;;;34.08;24.77;;;6.40;99.90;;;;;;2081164;28;20419;-79
2024/02/11 02:25:21;;;;;;;35.92;25.40;;;6.40;99.90;;;;;;2084710;28;20570;-78
2024/02/11 02:26:22;;;;;;;32.90;24.45;;;6.40;99.90;;;;;;2085965;28;20507;-77
2024/02/11 02:27:22;;;;;;;34.75;25.30;;;6.40;99.90;;;;;;2079666;28;20040;-78
2024/02/11 02:28:24;;;;;;;36.90;25.33;;;6.30;99.90;;;;;;2078614;28;20112;-78
2024/02/11 02:29:24;;;;;;;35.35;25.10;;;6.30;99.90;;;;;;2076384;28;20621;-79
2024/02/11 02:30:26;;;;;;;37.55;25.92;;;6.30;99.90;;;;;;2075340;28;20025;-78
2024/02/11 02:31:27;;;;;;;33.80;24.98;;;6.30;99.90;;;;;;2081820;28;20032;-79
2024/02/11 02:32:27;;;;;;;35.97;25.77;;;6.30;99.90;;;;;;2081791;28;20087;-78
2024/02/11 02:33:28;;;;;;;36.28;25.75;;;6.30;99.90;;;;;;2076837;28;20061;-78
2024/02/11 02:34:29;;;;;;;34.55;24.60;;;6.30;99.90;;;;;;2087440;28;20045;-79
2024/02/11 02:35:29;;;;;;;31.15;23.20;;;6.20;99.90;;;;;;2085248;28;20033;-77
2024/02/11 02:36:30;;;;;;;38.05;26.58;;;6.20;99.90;;;;;;2075967;28;20029;-77
2024/02/11 02:37:31;;;;;;;36.05;25.83;;;6.20;99.90;;;;;;2083736;28;20021;-78
2024/02/11 02:38:32;;;;;;;34.85;25.23;;;6.20;99.90;;;;;;2083637;28;20399;-77
2024/02/11 02:39:33;;;;;;;39.80;26.52;;;6.20;99.90;;;;;;2082700;28;20474;-78
2024/02/11 02:40:34;;;;;;;35.05;25.23;;;6.20;99.90;;;;;;2085084;28;20115;-77
2024/02/11 02:41:34;;;;;;;34.30;25.33;;;6.30;99.90;;;;;;2084737;28;20041;-77
2024/02/11 02:42:35;;;;;;;36.83;26.05;;;6.30;99.90;;;;;;2083291;28;20020;-77
2024/02/11 02:43:35;;;;;;;35.00;25.02;;;6.20;99.90;;;;;;2076471;28;20025;-78
2024/02/11 02:44:37;;;;;;;35.65;25.60;;;6.20;99.90;;;;;;2084449;28;20087;-78
2024/02/11 02:45:38;;;;;;;34.17;25.27;;;6.20;99.90;;;;;;2079738;28;20029;-74
2024/02/11 02:46:38;;;;;;;35.15;25.85;;;6.30;99.90;;;;;;2075566;28;20477;-78
2024/02/11 02:47:39;;;;;;;36.85;25.80;;;6.30;99.90;;;;;;2076064;28;20029;-79
2024/02/11 02:48:40;;;;;;;37.15;26.50;;;6.30;99.90;;;;;;2076521;28;20021;-78
2024/02/11 02:49:42;;;;;;;34.33;25.00;;;6.40;99.90;;;;;;2076798;28;20041;-78
2024/02/11 02:50:44;;;;;;;34.95;25.52;;;6.50;99.90;;;;;;2076698;28;20009;-77
2024/02/11 02:51:45;;;;;;;37.88;26.13;;;6.40;99.90;;;;;;2080640;28;20033;-77
2024/02/11 02:52:46;;;;;;;35.80;25.23;;;6.50;99.90;;;;;;2076985;28;20064;-77
2024/02/11 02:53:49;;;;;;;36.28;25.85;;;6.40;99.90;;;;;;2080279;28;20057;-78
2024/02/11 02:54:49;;;;;;;34.25;24.92;;;6.50;99.90;;;;;;2079808;28;20020;-77
2024/02/11 02:55:50;;;;;;;35.53;25.30;;;6.50;99.90;;;;;;2078844;28;20120;-77
2024/02/11 02:56:51;;;;;;;34.30;24.65;;;6.50;99.90;;;;;;2083588;28;20017;-78
2024/02/11 02:57:51;;;;;;;34.53;24.20;;;6.50;99.90;;;;;;2082086;28;20490;-77
2024/02/11 02:58:53;;;;;;;34.03;24.55;;;6.50;99.90;;;;;;2085586;28;20478;-77
2024/02/11 02:59:54;;;;;;;34.47;24.58;;;6.50;99.90;;;;;;2081715;28;20017;-78
2024/02/11 03:00:54;;;;;;;34.25;23.80;;;6.50;99.90;;;;;;2081190;28;20030;-78
2024/02/11 03:02:01;;;;;;;34.28;24.48;;;6.50;99.90;;;;;;2083127;28;20047;-78
2024/02/11 03:03:06;;;;;;;35.40;23.67;;;6.50;99.90;;;;;;2073192;28;20143;-78
2024/02/11 03:04:08;;;;;;;33.55;23.88;;;6.50;99.90;;;;;;2076972;28;20033;-78
2024/02/11 03:05:09;;;;;;;32.35;23.40;;;6.50;99.90;;;;;;2076171;28;20333;-78
2024/02/11 03:06:09;;;;;;;34.38;23.45;;;6.60;99.90;;;;;;2075327;28;20136;-78
2024/02/11 03:07:10;;;;;;;31.00;23.00;;;6.60;99.90;;;;;;2075231;28;20034;-78
2024/02/11 03:08:12;;;;;;;32.45;23.20;;;6.60;99.90;;;;;;2084197;28;20034;-78
2024/02/11 03:09:13;;;;;;;32.58;22.67;;;6.60;99.90;;;;;;2083405;28;20032;-77
2024/02/11 03:10:16;;;;;;;34.47;24.55;;;6.60;99.90;;;;;;2067295;28;20409;-77
2024/02/11 03:11:16;;;;;;;34.95;24.25;;;6.60;99.90;;;;;;2075607;28;20564;-79
2024/02/11 03:12:17;;;;;;;33.75;24.27;;;6.60;99.90;;;;;;2084777;28;20086;-78
2024/02/11 03:13:17;;;;;;;38.50;24.55;;;6.50;99.90;;;;;;2078789;28;20032;-79
2024/02/11 03:14:18;;;;;;;34.30;25.27;;;6.50;99.90;;;;;;2075266;28;20495;-78
2024/02/11 03:15:19;;;;;;;36.55;25.58;;;6.40;99.90;;;;;;2079656;28;20573;-77
2024/02/11 03:16:19;;;;;;;33.65;24.75;;;6.50;99.90;;;;;;2084068;28;20025;-77
2024/02/11 03:17:20;;;;;;;33.05;24.27;;;6.40;99.90;;;;;;2075903;28;20089;-78
2024/02/11 03:18:22;;;;;;;33.38;24.20;;;6.40;99.90;;;;;;2079342;28;20059;-78
2024/02/11 03:19:22;;;;;;;31.92;23.58;;;6.30;99.90;;;;;;2075422;28;20032;-78
2024/02/11 03:20:23;;;;;;;34.70;24.98;;;6.30;99.90;;;;;;2075660;28;20029;-77
2024/02/11 03:21:23;;;;;;;35.33;25.02;;;6.30;99.90;;;;;;2076139;28;20018;-79
2024/02/11 03:22:26;;;;;;;35.63;25.70;;;6.30;99.90;;;;;;2076018;28;20092;-77
2024/02/11 03:23:26;;;;;;;33.13;24.38;;;6.30;99.90;;;;;;2083816;28;20501;-77
2024/02/11 03:24:28;;;;;;;32.65;23.90;;;6.30;99.90;;;;;;2077548;28;20033;-77
2024/02/11 03:25:28;;;;;;;34.95;24.45;;;6.30;99.90;;;;;;2082348;28;20041;-77
2024/02/11 03:26:29;;;;;;;34.88;24.63;;;6.30;99.90;;;;;;2080193;28;20056;-78
2024/02/11 03:27:30;;;;;;;34.75;24.30;;;6.40;99.90;;;;;;2083948;28;20056;-78
2024/02/11 03:28:31;;;;;;;34.65;24.23;;;6.40;99.90;;;;;;2081640;28;20041;-78
2024/02/11 03:29:33;;;;;;;33.10;23.48;;;6.40;99.90;;;;;;2075449;28;20037;-77
2024/02/11 03:30:35;;;;;;;33.28;23.85;;;6.50;99.90;;;;;;2077325;28;20036;-77
2024/02/11 03:31:36;;;;;;;32.17;22.88;;;6.50;99.90;;;;;;2078492;28;20033;-77
2024/02/11 03:32:36;;;;;;;31.25;22.58;;;6.50;99.90;;;;;;2082492;28;20037;-79
2024/02/11 03:33:37;;;;;;;37.03;24.08;;;6.40;99.90;;;;;;2082683;28;20096;-78
2024/02/11 03:34:37;;;;;;;34.50;23.33;;;6.40;99.90;;;;;;2079182;28;20096;-78
2024/02/11 03:35:38;;;;;;;32.47;22.83;;;6.50;99.90;;;;;;2082333;28;20028;-78
2024/02/11 03:36:39;;;;;;;33.38;22.92;;;6.50;99.90;;;;;;2080247;28;20037;-78
2024/02/11 03:37:39;;;;;;;30.90;22.98;;;6.50;99.90;;;;;;2083534;28;20108;-78
2024/02/11 03:38:40;;;;;;;33.25;23.30;;;6.50;99.90;;;;;;2084089;28;20020;-78
2024/02/11 03:39:40;;;;;;;37.45;23.58;;;6.50;99.90;;;;;;2081306;28;20403;-78
2024/02/11 03:40:41;;;;;;;30.92;22.52;;;6.50;99.90;;;;;;2079222;28;20031;-77
2024/02/11 03:41:41;;;;;;;33.58;23.40;;;6.50;99.90;;;;;;2083946;28;20033;-78
2024/02/11 03:42:43;;;;;;;36.80;23.52;;;6.50;99.90;;;;;;2080712;28;20087;-77
2024/02/11 03:43:44;;;;;;;33.55;23.70;;;6.50;99.90;;;;;;2078327;28;20108;-78
2024/02/11 03:44:45;;;;;;;36.35;25.35;;;6.40;99.90;;;;;;2076879;28;20087;-78
2024/02/11 03:45:49;;;;;;;32.17;24.30;;;6.40;99.90;;;;;;2075953;28;20182;-78
2024/02/11 03:46:50;;;;;;;37.40;24.98;;;6.30;99.90;;;;;;2075625;28;20030;-78
2024/02/11 03:47:50;;;;;;;36.17;24.55;;;6.30;99.90;;;;;;2083450;28;20406;-78
2024/02/11 03:48:51;;;;;;;36.47;24.35;;;6.30;99.90;;;;;;2069089;28;20080;-79
2024/02/11 03:49:52;;;;;;;33.22;24.08;;;6.30;99.90;;;;;;2082106;28;20060;-77
2024/02/11 03:50:53;;;;;;;37.40;23.92;;;6.20;99.90;;;;;;2081312;28;20025;-76
2024/02/11 03:51:56;;;;;;;36.33;24.23;;;6.20;99.90;;;;;;2087335;28;20021;-77
2024/02/11 03:52:58;;;;;;;35.00;24.85;;;6.30;99.90;;;;;;2083570;28;20041;-78
2024/02/11 03:54:02;;;;;;;36.40;24.30;;;6.20;99.90;;;;;;2084435;28;20024;-77
2024/02/11 03:55:06;;;;;;;33.30;23.92;;;6.20;99.90;;;;;;2077539;28;20041;-77
2024/02/11 03:56:07;;;;;;;35.60;23.33;;;6.20;99.90;;;;;;2084244;28;20044;-78
2024/02/11 03:57:07;;;;;;;35.15;23.90;;;6.20;99.90;;;;;;2087511;28;20133;-78
2024/02/11 03:58:08;;;;;;;34.15;23.60;;;6.10;99.90;;;;;;2079686;28;20090;-78
2024/02/11 03:59:10;;;;;;;35.95;24.45;;;6.10;99.90;;;;;;2084458;28;20390;-77
2024/02/11 04:00:16;;;;;;;34.70;22.67;;;6.10;99.90;;;;;;2086573;28;20070;-76
2024/02/11 04:01:17;;;;;;;33.47;23.15;;;6.10;99.90;;;;;;2081906;28;21000;-78
2024/02/11 04:02:18;;;;;;;36.67;24.10;;;6.10;99.90;;;;;;2079652;28;20025;-77
2024/02/11 04:03:18;;;;;;;34.85;23.95;;;6.10;99.90;;;;;;2085041;28;20121;-78
2024/02/11 04:04:19;;;;;;;35.17;24.05;;;6.10;99.90;;;;;;2082964;28;20055;-78
2024/02/11 04:05:22;;;;;;;36.22;24.90;;;6.10;99.90;;;;;;2078480;28;20091;-78
2024/02/11 04:06:22;;;;;;;37.42;24.40;;;6.10;99.90;;;;;;2084451;28;20119;-78
2024/02/11 04:07:23;;;;;;;36.13;24.60;;;6.00;99.90;;;;;;2083634;28;20081;-77
2024/02/11 04:08:24;;;;;;;34.50;23.27;;;6.10;99.90;;;;;;2076708;28;20049;-79
2024/02/11 04:09:28;;;;;;;35.53;24.55;;;6.00;99.90;;;;;;2084606;28;20068;-77
2024/02/11 04:10:30;;;;;;;36.10;24.25;;;6.00;99.90;;;;;;2081999;28;20086;-78
2024/02/11 04:11:31;;;;;;;33.65;22.90;;;6.00;99.90;;;;;;2085361;28;20022;-78
2024/02/11 04:12:31;;;;;;;36.58;23.40;;;6.00;99.90;;;;;;2084511;28;20024;-79
2024/02/11 04:13:32;;;;;;;34.50;23.80;;;6.00;99.90;;;;;;2076927;28;20017;-76
2024/02/11 04:14:33;;;;;;;35.13;23.17;;;6.10;99.90;;;;;;2076959;28;20365;-77
2024/02/11 04:15:35;;;;;;;35.63;24.50;;;6.10;99.90;;;;;;2084593;28;20680;-78
2024/02/11 04:16:43;;;;;;;39.10;24.98;;;6.10;99.90;;;;;;2076104;28;20460;-77
2024/02/11 04:17:48;;;;;;;39.85;25.80;;;6.10;99.90;;;;;;2077040;28;20083;-78
2024/02/11 04:18:49;;;;;;;36.08;25.30;;;6.10;99.90;;;;;;2084815;28;20013;-79
2024/02/11 04:19:51;;;;;;;39.95;25.60;;;6.10;99.90;;;;;;2072465;28;20072;-79
2024/02/11 04:20:54;;;;;;;36.38;24.38;;;6.10;99.90;;;;;;2071205;28;20097;-78
2024/02/11 04:21:55;;;;;;;34.13;23.92;;;6.10;99.90;;;;;;2084274;28;20106;-78
2024/02/11 04:23:00;;;;;;;35.60;23.88;;;6.10;99.90;;;;;;2074136;28;20572;-78
2024/02/11 04:24:01;;;;;;;31.92;23.40;;;6.10;99.90;;;;;;2076782;28;20025;-77
2024/02/11 04:25:07;;;;;;;34.08;23.83;;;6.10;99.90;;;;;;2075600;28;20045;-78
2024/02/11 04:26:10;;;;;;;38.42;24.48;;;6.10;99.90;;;;;;2076838;28;20051;-78
2024/02/11 04:27:14;;;;;;;36.80;24.05;;;6.10;99.90;;;;;;2079119;28;20454;-77
2024/02/11 04:28:15;;;;;;;35.03;24.55;;;6.10;99.90;;;;;;2079565;28;20029;-78
2024/02/11 04:29:16;;;;;;;34.65;23.77;;;6.00;99.90;;;;;;2084356;28;20028;-77
2024/02/11 04:30:19;;;;;;;33.53;23.75;;;6.00;99.90;;;;;;2080325;28;20033;-77
2024/02/11 04:31:19;;;;;;;35.88;24.17;;;6.10;99.90;;;;;;2077270;28;20041;-79
2024/02/11 04:32:22;;;;;;;33.97;23.70;;;6.10;99.90;;;;;;2077805;28;20021;-79
2024/02/11 04:33:23;;;;;;;34.92;24.10;;;6.10;99.90;;;;;;2073484;28;20037;-79
2024/02/11 04:34:23;;;;;;;35.92;24.40;;;6.10;99.90;;;;;;2073018;28;20029;-77
2024/02/11 04:35:24;;;;;;;35.90;24.65;;;6.10;99.90;;;;;;2072109;28;20060;-78
2024/02/11 04:36:24;;;;;;;36.55;25.00;;;6.10;99.90;;;;;;2075765;28;20041;-77
2024/02/11 04:37:25;;;;;;;39.58;25.75;;;6.10;99.90;;;;;;2077235;28;20026;-79
2024/02/11 04:38:27;;;;;;;40.67;25.83;;;6.10;99.90;;;;;;2067958;28;20115;-78
2024/02/11 04:39:28;;;;;;;35.05;23.77;;;6.00;99.90;;;;;;2075283;28;20021;-77
2024/02/11 04:40:31;;;;;;;36.08;23.88;;;6.10;99.90;;;;;;2076349;28;20099;-78
2024/02/11 04:41:32;;;;;;;36.90;24.48;;;6.00;99.90;;;;;;2083964;28;20037;-78
2024/02/11 04:42:35;;;;;;;34.53;23.77;;;6.00;99.90;;;;;;2084094;28;20082;-76
2024/02/11 04:43:35;;;;;;;35.35;23.98;;;6.00;99.90;;;;;;2077526;28;20026;-78
2024/02/11 04:44:37;;;;;;;33.95;23.67;;;6.00;99.90;;;;;;2083666;28;20030;-78
2024/02/11 04:45:38;;;;;;;38.25;25.02;;;6.00;99.90;;;;;;2073865;28;20116;-77
2024/02/11 04:46:40;;;;;;;32.10;23.67;;;6.00;99.90;;;;;;2068184;28;20033;-77
2024/02/11 04:47:48;;;;;;;33.90;24.52;;;6.00;99.90;;;;;;2060310;28;20022;-78
2024/02/11 04:48:49;;;;;;;36.50;24.20;;;6.00;99.90;;;;;;2074417;28;20505;-78
2024/02/11 04:49:52;;;;;;;35.25;24.23;;;6.00;99.90;;;;;;2079707;28;20191;-78
2024/02/11 04:50:53;;;;;;;35.70;25.50;;;6.00;99.90;;;;;;2080128;28;20041;-79
2024/02/11 04:51:53;;;;;;;37.75;24.65;;;6.00;99.90;;;;;;2080424;28;20033;-78
2024/02/11 04:52:56;;;;;;;36.13;24.85;;;6.00;99.90;;;;;;2078675;28;20034;-78
2024/02/11 04:53:57;;;;;;;37.65;26.20;;;6.00;99.90;;;;;;2084326;28;20664;-77
2024/02/11 04:54:58;;;;;;;38.33;25.77;;;6.00;99.90;;;;;;2080950;28;20037;-77
2024/02/11 04:55:58;;;;;;;38.72;26.30;;;6.00;99.90;;;;;;2079211;28;20033;-78
2024/02/11 04:57:00;;;;;;;36.40;25.58;;;6.00;99.90;;;;;;2084435;28;20038;-79
2024/02/11 04:58:01;;;;;;;37.88;26.30;;;6.00;99.90;;;;;;2083155;28;20097;-78
2024/02/11 04:59:04;;;;;;;34.85;25.77;;;6.00;99.90;;;;;;2077922;28;20029;-78
2024/02/11 05:00:23;;;;;;;36.40;25.67;;;6.00;99.90;;;;;;2076082;28;20036;-78
2024/02/11 05:01:23;;;;;;;39.97;25.90;;;6.00;99.90;;;;;;2078135;28;20511;-79
2024/02/11 05:02:25;;;;;;;37.90;24.17;;;6.00;99.90;;;;;;2082747;28;20106;-79
2024/02/11 05:03:27;;;;;;;40.72;26.20;;;6.00;99.90;;;;;;2082117;28;20566;-78
2024/02/11 05:04:27;;;;;;;37.05;26.05;;;6.00;99.90;;;;;;2076603;28;20034;-78
2024/02/11 05:05:30;;;;;;;37.08;25.63;;;5.90;99.90;;;;;;2084802;28;20070;-78
2024/02/11 05:06:31;;;;;;;38.03;26.30;;;6.00;99.90;;;;;;2083216;28;20082;-77
2024/02/11 05:07:32;;;;;;;36.25;25.50;;;6.00;99.90;;;;;;2084724;28;20047;-78
2024/02/11 05:08:33;;;;;;;34.85;25.38;;;5.90;99.90;;;;;;2078510;28;20029;-79
2024/02/11 05:09:37;;;;;;;36.25;24.77;;;6.00;99.90;;;;;;2076973;28;20103;-77
2024/02/11 05:10:39;;;;;;;36.38;25.70;;;6.00;99.90;;;;;;2076869;28;20095;-77
2024/02/11 05:11:39;;;;;;;36.70;25.52;;;6.00;99.90;;;;;;2083697;28;20048;-76
2024/02/11 05:12:41;;;;;;;38.47;25.60;;;6.00;99.90;;;;;;2087202;28;20028;-78
2024/02/11 05:13:43;;;;;;;37.60;25.45;;;6.00;99.90;;;;;;2087485;28;20141;-77
2024/02/11 05:14:44;;;;;;;38.42;25.70;;;6.00;99.90;;;;;;2080075;28;20033;-77
2024/02/11 05:15:49;;;;;;;35.30;25.40;;;6.00;99.90;;;;;;2084097;28;20068;-77